TFM - Tactical Decision Aid
ID: Runway Winds: CIG/VIS Threshold:

KLAS - Las Vegas/McCarran I, NV, US

Updated at: 1856 UTC 19 Aug 2019
Latest TAF at: 1732 UTC 19 Aug 2019

TAF Board

Time1756Z 19/19Z 19/20Z 19/21Z 19/22Z 19/23Z 20/00Z 20/01Z 20/02Z 20/03Z 20/04Z 20/05Z 20/06Z 20/07Z>>
Type OBS PRVL PRVL PRVL PRVL PRVL PRVL PRVL PRVL PRVL PRVL PRVL PRVL PRVL
VIS 10 >6 >6 >6 >6 >6 >6 >6 >6 >6 >6 >6 >6 >6
CIG -- -- -- -- -- -- -- -- -- -- -- -- -- --
Cover FEW FEW SCT SCT SCT SCT SCT SCT SCT SCT SCT SCT SCT SCT
FltCat VFR VFR VFR VFR VFR VFR VFR VFR VFR VFR VFR VFR VFR VFR
WX -- -- -- -- -- -- -- -- -- -- -- -- -- --
WDir 150 140 200 200 200 200 200 200 200 200 200 200 200 200
WSpd 7 9 10 10 10 10 10 10 10 10 8 8 8 8
WGst -- -- 20 20 20 20 20 20 20 20 -- -- -- --

TDA Impact Legend

  None Marginal Slight Moderate High
Visibility (sm) >5 3≤X≤5 1≤X<3 0.5≤X<1 <0.5
Ceiling (100 ft) >30 10≤X≤30 4≤X<10 2≤X<4 <2
Wind Speed (kt) <15 15≤X<25 25≤X<30 ≥30
Wind Gust (kt) <15 15≤X<25 25≤X<35 ≥35
Weather No Wx Reported VCTS -TS,-FZRA TS,FZRA +TS,+FZRA
TAF
KLAS 191732Z 1918/2024 14009KT P6SM FEW250
  FM192000 20010G20KT P6SM SCT250
  FM200400 20008KT P6SM SCT250
  FM201600 11007KT P6SM SCT250


METAR
KLAS 191756Z 15007KT 10SM FEW250 36/M02 A2995 RMK AO2 SLP109 T03561022 10356 20256 50005
KLAS 191656Z 14007KT 10SM FEW250 33/M01 A2995 RMK AO2 SLP111 T03281011
KLAS 191556Z 15005KT 10SM FEW250 31/M01 A2993 RMK AO2 SLP106 T03111006 $

Radar Display
Forecast Discussion